B603L PANC-RJCC
Flight info
| Callsign | B603L |
|---|---|
| Flight time | N/A |
| Altitude | 34000 |
| Route | IFHIX DCT NODLE R220 NEONN G349 MARCC G583 BESAT/K0846F340 G583 BISIV/N0470F340 G583 MVE V8 BEEBA V1 KURIS |
| Aircraft | CL60/M-SBDE1E2E3FGHIJ1J4J5J7M3RWXYZ/LB1V1D1 |
Departure
| Time | N/A |
|---|---|
| Airport | Ted Stevens Anchorage International Airport (PANC) |
Arrival
| Time | 2026-05-04 22:20 |
|---|---|
| Airport | New Chitose Airport (RJCC) |
| Time | Latitude | Longitude | Altitude | Speed | Heading |
|---|---|---|---|---|---|
| 2026-05-04 22:00 | 43.62512 | 142.35791 | 22402 ft | 375 kts | 241° |
| 2026-05-04 22:01 | 43.61206 | 142.32733 | 21167 ft | 372 kts | 241° |
| 2026-05-04 22:01 | 43.59913 | 142.29672 | 19584 ft | 377 kts | 242° |
| 2026-05-04 22:01 | 43.58609 | 142.26575 | 18072 ft | 375 kts | 242° |
| 2026-05-04 22:01 | 43.57329 | 142.23557 | 17054 ft | 361 kts | 242° |
| 2026-05-04 22:02 | 43.56080 | 142.20634 | 16104 ft | 348 kts | 242° |
| 2026-05-04 22:02 | 43.54874 | 142.17812 | 15209 ft | 336 kts | 243° |
| 2026-05-04 22:02 | 43.53723 | 142.15108 | 14475 ft | 323 kts | 243° |
| 2026-05-04 22:02 | 43.52592 | 142.12436 | 14213 ft | 324 kts | 244° |
| 2026-05-04 22:03 | 43.51413 | 142.09641 | 13782 ft | 342 kts | 244° |
| 2026-05-04 22:03 | 43.50219 | 142.06844 | 13522 ft | 342 kts | 244° |
| 2026-05-04 22:03 | 43.48995 | 142.03992 | 13074 ft | 338 kts | 244° |
| 2026-05-04 22:03 | 43.47816 | 142.01248 | 12741 ft | 332 kts | 244° |
| 2026-05-04 22:04 | 43.46645 | 141.98514 | 12375 ft | 324 kts | 244° |
| 2026-05-04 22:04 | 43.45513 | 141.95866 | 11998 ft | 319 kts | 244° |
| 2026-05-04 22:04 | 43.44403 | 141.93269 | 11649 ft | 311 kts | 245° |
| 2026-05-04 22:04 | 43.43321 | 141.90744 | 11316 ft | 304 kts | 245° |
| 2026-05-04 22:05 | 43.42255 | 141.88269 | 10993 ft | 298 kts | 245° |
| 2026-05-04 22:05 | 43.41201 | 141.85829 | 10638 ft | 292 kts | 245° |
| 2026-05-04 22:05 | 43.40189 | 141.83478 | 10351 ft | 283 kts | 245° |
| 2026-05-04 22:05 | 43.39191 | 141.81149 | 10023 ft | 281 kts | 245° |
| 2026-05-04 22:06 | 43.38209 | 141.78850 | 9723 ft | 277 kts | 245° |
| 2026-05-04 22:06 | 43.37236 | 141.76587 | 9394 ft | 277 kts | 245° |
| 2026-05-04 22:06 | 43.36203 | 141.74327 | 9119 ft | 278 kts | 238° |
| 2026-05-04 22:06 | 43.34771 | 141.72487 | 8743 ft | 288 kts | 218° |
| 2026-05-04 22:07 | 43.32894 | 141.71532 | 8438 ft | 294 kts | 191° |
| 2026-05-04 22:07 | 43.30847 | 141.71416 | 8013 ft | 298 kts | 185° |
| 2026-05-04 22:07 | 43.28785 | 141.71347 | 7755 ft | 292 kts | 186° |
| 2026-05-04 22:07 | 43.26732 | 141.71228 | 7405 ft | 292 kts | 186° |
| 2026-05-04 22:08 | 43.24717 | 141.71118 | 7096 ft | 288 kts | 186° |
| 2026-05-04 22:08 | 43.22713 | 141.71008 | 6765 ft | 286 kts | 186° |
| 2026-05-04 22:08 | 43.20708 | 141.70918 | 6452 ft | 283 kts | 186° |
| 2026-05-04 22:08 | 43.19145 | 141.70839 | 6199 ft | 281 kts | 186° |
| 2026-05-04 22:09 | 43.18149 | 141.70785 | 6028 ft | 280 kts | 186° |
| 2026-05-04 22:10 | 43.16209 | 141.70686 | 5735 ft | 276 kts | 186° |
| 2026-05-04 22:10 | 43.14338 | 141.70288 | 5416 ft | 270 kts | 199° |
| 2026-05-04 22:10 | 43.12523 | 141.69626 | 5129 ft | 267 kts | 199° |
| 2026-05-04 22:10 | 43.10745 | 141.68986 | 4840 ft | 264 kts | 199° |
| 2026-05-04 22:11 | 43.08981 | 141.68355 | 4551 ft | 256 kts | 199° |
| 2026-05-04 22:11 | 43.07280 | 141.67747 | 4273 ft | 248 kts | 198° |
| 2026-05-04 22:11 | 43.05609 | 141.67149 | 3995 ft | 240 kts | 198° |
| 2026-05-04 22:11 | 43.04010 | 141.66580 | 3732 ft | 234 kts | 198° |
| 2026-05-04 22:12 | 43.03502 | 141.66399 | 3640 ft | 232 kts | 198° |
| 2026-05-04 22:14 | 43.02243 | 141.65948 | 3443 ft | 226 kts | 198° |
| 2026-05-04 22:14 | 43.00745 | 141.65413 | 3206 ft | 221 kts | 197° |
| 2026-05-04 22:14 | 42.99230 | 141.65085 | 2934 ft | 219 kts | 178° |
| 2026-05-04 22:15 | 42.97726 | 141.65337 | 2710 ft | 213 kts | 174° |
| 2026-05-04 22:15 | 42.96289 | 141.65640 | 2429 ft | 202 kts | 171° |
| 2026-05-04 22:15 | 42.94935 | 141.65958 | 2094 ft | 194 kts | 173° |
| 2026-05-04 22:15 | 42.93631 | 141.66203 | 1999 ft | 176 kts | 174° |
| 2026-05-04 22:16 | 42.92399 | 141.66423 | 1998 ft | 181 kts | 174° |
| 2026-05-04 22:16 | 42.91150 | 141.66644 | 1980 ft | 180 kts | 174° |
| 2026-05-04 22:16 | 42.89886 | 141.66867 | 1999 ft | 180 kts | 174° |
| 2026-05-04 22:16 | 42.88645 | 141.67084 | 1980 ft | 172 kts | 174° |
| 2026-05-04 22:17 | 42.87521 | 141.67284 | 1906 ft | 151 kts | 174° |
| 2026-05-04 22:17 | 42.86534 | 141.67458 | 1679 ft | 137 kts | 174° |
| 2026-05-04 22:17 | 42.85600 | 141.67622 | 1443 ft | 131 kts | 174° |
| 2026-05-04 22:17 | 42.84708 | 141.67780 | 1296 ft | 130 kts | 174° |
| 2026-05-04 22:18 | 42.83810 | 141.67937 | 1122 ft | 128 kts | 174° |
| 2026-05-04 22:18 | 42.82912 | 141.68106 | 943 ft | 128 kts | 173° |
| 2026-05-04 22:18 | 42.82031 | 141.68272 | 771 ft | 128 kts | 173° |
| 2026-05-04 22:18 | 42.81152 | 141.68428 | 599 ft | 128 kts | 173° |
| 2026-05-04 22:19 | 42.80263 | 141.68571 | 408 ft | 127 kts | 174° |
| 2026-05-04 22:19 | 42.79372 | 141.68724 | 228 ft | 128 kts | 173° |
| 2026-05-04 22:19 | 42.78494 | 141.68875 | 86 ft | 124 kts | 172° |
| 2026-05-04 22:19 | 42.77760 | 141.69000 | 73 ft | 77 kts | 173° |
| 2026-05-04 22:20 | 42.77393 | 141.69064 | 71 ft | 34 kts | 176° |
| 2026-05-04 22:20 | 42.77218 | 141.69043 | 70 ft | 16 kts | 191° |
| 2026-05-04 22:20 | 42.77134 | 141.69005 | 71 ft | 8 kts | 202° |
| 2026-05-04 22:20 | 42.77092 | 141.68964 | 72 ft | 8 kts | 233° |
| 2026-05-04 22:21 | 42.77122 | 141.68889 | 72 ft | 12 kts | 338° |
| 2026-05-04 22:21 | 42.77159 | 141.68880 | 72 ft | 13 kts | 353° |
| 2026-05-04 22:22 | 42.77190 | 141.68875 | 72 ft | 14 kts | 353° |
| 2026-05-04 22:22 | 42.77301 | 141.68855 | 73 ft | 17 kts | 353° |
| 2026-05-04 22:23 | 42.77430 | 141.68832 | 73 ft | 20 kts | 352° |
| 2026-05-04 22:23 | 42.77581 | 141.68805 | 73 ft | 22 kts | 353° |
| 2026-05-04 22:23 | 42.77745 | 141.68777 | 74 ft | 25 kts | 353° |
| 2026-05-04 22:23 | 42.77926 | 141.68745 | 73 ft | 27 kts | 352° |
| 2026-05-04 22:24 | 42.78126 | 141.68710 | 73 ft | 28 kts | 353° |
| 2026-05-04 22:24 | 42.78290 | 141.68681 | 73 ft | 19 kts | 353° |
| 2026-05-04 22:24 | 42.78382 | 141.68623 | 75 ft | 13 kts | 311° |
| 2026-05-04 22:24 | 42.78424 | 141.68512 | 79 ft | 10 kts | 308° |
| 2026-05-04 22:25 | 42.78486 | 141.68462 | 81 ft | 11 kts | 340° |
| 2026-05-04 22:25 | 42.78574 | 141.68442 | 82 ft | 14 kts | 352° |
| 2026-05-04 22:25 | 42.78676 | 141.68425 | 84 ft | 15 kts | 353° |
| 2026-05-04 22:25 | 42.78802 | 141.68404 | 83 ft | 19 kts | 352° |
| 2026-05-04 22:26 | 42.78942 | 141.68333 | 81 ft | 23 kts | 326° |
| 2026-05-04 22:26 | 42.79044 | 141.68214 | 78 ft | 17 kts | 309° |
| 2026-05-04 22:26 | 42.79106 | 141.68062 | 77 ft | 15 kts | 293° |
| 2026-05-04 22:26 | 42.79128 | 141.67950 | 76 ft | 9 kts | 279° |
| 2026-05-04 22:27 | 42.79167 | 141.67879 | 73 ft | 12 kts | 345° |
| 2026-05-04 22:27 | 42.79257 | 141.67845 | 72 ft | 12 kts | 302° |
| 2026-05-04 22:27 | 42.79258 | 141.67715 | 71 ft | 15 kts | 263° |
| 2026-05-04 22:27 | 42.79244 | 141.67557 | 70 ft | 19 kts | 263° |
| 2026-05-04 22:28 | 42.79229 | 141.67381 | 68 ft | 10 kts | 278° |
| 2026-05-04 22:28 | 42.79289 | 141.67326 | 66 ft | 11 kts | 353° |
| 2026-05-04 22:28 | 42.79373 | 141.67310 | 65 ft | 8 kts | 352° |
| 2026-05-04 22:28 | 42.79444 | 141.67300 | 65 ft | 11 kts | 11° |
| 2026-05-04 22:29 | 42.79470 | 141.67366 | 66 ft | 7 kts | 82° |
| 2026-05-04 22:29 | 42.79474 | 141.67406 | 67 ft | 2 kts | 83° |
| 2026-05-04 22:29 | 42.79475 | 141.67412 | 67 ft | 0 kts | 83° |
| 2026-05-04 22:29 | 42.79475 | 141.67413 | 67 ft | 0 kts | 83° |